Time;durP1;ratioP1;P1;durP2;ratioP2;P2;SDS_P1;SDS_P2;PMS_P1;PMS_P2;Temp;Humidity;BMP_temperature;BMP_pressure;BME280_temperature;BME280_humidity;BME280_pressure;Samples;Min_cycle;Max_cycle;Signal;HPM_P1;HPM_P2
2022/09/12 00:00:04;;;;;;;3.47;2.15;;;;;;;;;;5008577;28;20489;-81
2022/09/12 00:02:33;;;;;;;5.63;2.70;;;;;;;;;;5008736;28;20385;-81
2022/09/12 00:04:59;;;;;;;4.32;2.58;;;;;;;;;;4994265;28;20045;-80
2022/09/12 00:07:24;;;;;;;4.82;2.53;;;;;;;;;;4982821;28;20180;-81
2022/09/12 00:09:50;;;;;;;3.95;2.58;;;;;;;;;;4970768;28;20041;-80
2022/09/12 00:12:17;;;;;;;6.03;2.60;;;;;;;;;;5009022;28;20493;-81
2022/09/12 00:14:44;;;;;;;4.93;2.80;;;;;;;;;;4982729;28;20030;-80
2022/09/12 00:17:11;;;;;;;3.80;2.40;;;;;;;;;;5003701;28;20040;-81
2022/09/12 00:19:36;;;;;;;3.90;2.42;;;;;;;;;;5011268;28;20095;-80
2022/09/12 00:22:02;;;;;;;3.45;2.30;;;;;;;;;;5030832;28;20029;-81
2022/09/12 00:24:27;;;;;;;3.90;2.75;;;;;;;;;;4997197;28;20038;-80
2022/09/12 00:26:53;;;;;;;4.88;2.20;;;;;;;;;;4991297;28;20037;-81
2022/09/12 00:29:19;;;;;;;4.60;2.78;;;;;;;;;;5011768;28;20038;-80
2022/09/12 00:31:45;;;;;;;4.68;2.75;;;;;;;;;;5002979;28;20120;-82
2022/09/12 00:34:11;;;;;;;3.67;2.58;;;;;;;;;;5009801;28;20175;-81
2022/09/12 00:36:39;;;;;;;4.30;2.70;;;;;;;;;;4978120;28;20046;-81
2022/09/12 00:39:05;;;;;;;4.70;2.58;;;;;;;;;;5009608;28;20034;-80
2022/09/12 00:41:33;;;;;;;4.85;3.08;;;;;;;;;;5031426;28;20036;-81
2022/09/12 00:44:10;;;;;;;6.07;2.80;;;;;;;;;;5032023;28;20112;-81
2022/09/12 00:46:48;;;;;;;5.07;2.85;;;;;;;;;;4994713;28;20104;-80
2022/09/12 00:49:21;;;;;;;6.00;2.90;;;;;;;;;;5009541;28;20083;-83
2022/09/12 00:51:55;;;;;;;4.43;2.78;;;;;;;;;;5010352;28;20512;-82
2022/09/12 00:54:25;;;;;;;6.07;2.38;;;;;;;;;;5030001;28;20029;-82
2022/09/12 00:56:53;;;;;;;4.50;2.88;;;;;;;;;;5009861;28;20041;-88
2022/09/12 00:59:24;;;;;;;5.63;2.70;;;;;;;;;;5013579;28;20056;-89
2022/09/12 01:01:50;;;;;;;4.72;2.70;;;;;;;;;;5007952;28;20488;-88
2022/09/12 01:04:17;;;;;;;4.30;2.72;;;;;;;;;;4995018;28;20029;-88
2022/09/12 01:06:43;;;;;;;5.53;2.90;;;;;;;;;;5002294;28;20504;-89
2022/09/12 01:09:15;;;;;;;4.15;2.85;;;;;;;;;;5015453;28;20045;-89
2022/09/12 01:11:41;;;;;;;4.35;2.50;;;;;;;;;;4992583;28;20041;-90
2022/09/12 01:14:07;;;;;;;4.18;2.80;;;;;;;;;;5010353;28;20478;-89
2022/09/12 01:16:36;;;;;;;4.20;2.80;;;;;;;;;;4994002;28;20069;-90
2022/09/12 01:19:30;;;;;;;4.10;2.67;;;;;;;;;;5008831;28;20374;-89
2022/09/12 01:22:59;;;;;;;5.00;2.50;;;;;;;;;;5027200;28;20040;-89
2022/09/12 01:25:42;;;;;;;5.95;2.80;;;;;;;;;;4916392;28;20463;-89
2022/09/12 01:28:17;;;;;;;5.07;2.95;;;;;;;;;;4946779;28;20049;-89
2022/09/12 01:30:48;;;;;;;7.03;3.40;;;;;;;;;;4994876;28;20428;-89
2022/09/12 01:33:34;;;;;;;4.88;2.90;;;;;;;;;;5025109;28;20033;-89
2022/09/12 01:36:09;;;;;;;4.07;2.65;;;;;;;;;;5008721;28;20038;-90
2022/09/12 01:38:45;;;;;;;4.60;2.88;;;;;;;;;;5000053;28;20044;-89
2022/09/12 01:41:22;;;;;;;5.00;3.15;;;;;;;;;;4993324;28;20388;-89
2022/09/12 01:43:53;;;;;;;4.72;3.10;;;;;;;;;;4993127;28;20038;-90
2022/09/12 01:46:23;;;;;;;4.30;2.92;;;;;;;;;;5025863;28;20068;-89
2022/09/12 01:49:24;;;;;;;4.40;2.85;;;;;;;;;;5005822;28;20036;-88
2022/09/12 01:51:57;;;;;;;4.43;3.08;;;;;;;;;;4991789;28;20034;-89
2022/09/12 01:54:40;;;;;;;5.13;3.30;;;;;;;;;;4988947;28;20527;-90
2022/09/12 01:57:13;;;;;;;4.97;2.90;;;;;;;;;;4991732;28;20507;-88
2022/09/12 01:59:43;;;;;;;4.80;2.90;;;;;;;;;;5009466;28;20081;-89
2022/09/12 02:02:13;;;;;;;5.75;3.00;;;;;;;;;;4994127;28;20076;-89
2022/09/12 02:04:51;;;;;;;5.00;3.03;;;;;;;;;;5009066;28;20142;-89
2022/09/12 02:07:20;;;;;;;4.55;2.90;;;;;;;;;;5008232;28;20061;-89
2022/09/12 02:10:03;;;;;;;3.78;2.72;;;;;;;;;;4988755;28;20035;-90
2022/09/12 02:12:34;;;;;;;3.90;2.78;;;;;;;;;;5008019;28;20041;-89
2022/09/12 02:15:03;;;;;;;4.60;2.83;;;;;;;;;;5004600;28;20662;-89
2022/09/12 02:17:29;;;;;;;5.07;3.00;;;;;;;;;;4993623;28;20144;-89
2022/09/12 02:20:02;;;;;;;6.18;3.10;;;;;;;;;;5008784;28;20037;-88
2022/09/12 02:22:29;;;;;;;5.20;2.90;;;;;;;;;;4992009;28;20034;-89
2022/09/12 02:24:57;;;;;;;4.35;3.03;;;;;;;;;;4991465;28;20083;-86
2022/09/12 02:27:27;;;;;;;4.57;3.05;;;;;;;;;;4995665;28;20037;-89
2022/09/12 02:29:52;;;;;;;5.28;2.97;;;;;;;;;;5000139;28;20096;-79
2022/09/12 02:32:27;;;;;;;4.95;2.97;;;;;;;;;;5011302;28;20041;-81
2022/09/12 02:35:20;;;;;;;4.80;3.13;;;;;;;;;;5011543;28;20069;-81
2022/09/12 02:38:13;;;;;;;4.40;3.13;;;;;;;;;;4990989;28;20038;-81
2022/09/12 02:40:38;;;;;;;5.40;3.58;;;;;;;;;;5018065;28;20417;-81
2022/09/12 02:43:06;;;;;;;4.72;3.05;;;;;;;;;;5011620;28;20115;-81
2022/09/12 02:45:33;;;;;;;6.13;4.00;;;;;;;;;;5029275;28;20034;-81
2022/09/12 02:48:09;;;;;;;7.43;3.50;;;;;;;;;;5012303;28;20037;-81
2022/09/12 02:50:34;;;;;;;5.00;3.05;;;;;;;;;;5007762;28;20401;-81
2022/09/12 02:53:03;;;;;;;4.28;2.95;;;;;;;;;;5029356;28;20037;-81
2022/09/12 02:55:31;;;;;;;4.82;3.25;;;;;;;;;;5028808;28;20033;-82
2022/09/12 02:57:56;;;;;;;;;;;;;;;;;;5000461;28;20043;-82
2022/09/12 03:00:22;;;;;;;5.53;2.85;;;;;;;;;;5007767;28;19996;-83
2022/09/12 03:03:05;;;;;;;8.73;4.13;;;;;;;;;;5029542;28;20132;-81
2022/09/12 03:05:34;;;;;;;5.05;3.58;;;;;;;;;;5003559;28;20116;-81
2022/09/12 03:08:21;;;;;;;6.25;3.10;;;;;;;;;;5028089;28;20087;-81
2022/09/12 03:10:51;;;;;;;7.32;3.28;;;;;;;;;;5028421;28;20029;-81
2022/09/12 03:13:30;;;;;;;4.88;3.00;;;;;;;;;;5028250;28;20091;-81
2022/09/12 03:16:08;;;;;;;5.90;3.30;;;;;;;;;;5012960;28;20385;-83
2022/09/12 03:19:07;;;;;;;5.60;3.33;;;;;;;;;;5010191;28;20056;-81
2022/09/12 03:21:54;;;;;;;5.38;3.40;;;;;;;;;;5003176;28;20108;-80
2022/09/12 03:24:34;;;;;;;5.10;3.13;;;;;;;;;;5008592;28;20065;-81
2022/09/12 03:27:09;;;;;;;5.85;3.35;;;;;;;;;;5007646;28;20112;-80
2022/09/12 03:29:36;;;;;;;5.45;3.33;;;;;;;;;;5027109;28;20057;-80
2022/09/12 03:32:01;;;;;;;6.07;3.40;;;;;;;;;;5010148;28;20034;-80
2022/09/12 03:34:27;;;;;;;5.97;3.55;;;;;;;;;;5018484;28;20033;-81
2022/09/12 03:36:56;;;;;;;5.57;3.35;;;;;;;;;;5010640;28;20121;-81
2022/09/12 03:39:26;;;;;;;6.03;3.75;;;;;;;;;;5008822;28;20040;-81
2022/09/12 03:41:54;;;;;;;6.55;4.40;;;;;;;;;;5010106;28;20064;-81
2022/09/12 03:44:20;;;;;;;7.25;3.75;;;;;;;;;;4994169;28;20041;-81
2022/09/12 03:46:45;;;;;;;5.25;3.58;;;;;;;;;;5008191;28;20543;-81
2022/09/12 03:49:11;;;;;;;6.70;3.92;;;;;;;;;;5027090;28;20037;-83
2022/09/12 03:51:38;;;;;;;5.32;3.65;;;;;;;;;;4993760;28;20404;-81
2022/09/12 03:54:04;;;;;;;6.85;4.15;;;;;;;;;;5003540;28;20053;-81
2022/09/12 03:56:30;;;;;;;5.07;3.60;;;;;;;;;;5029857;28;20498;-81
2022/09/12 03:58:55;;;;;;;5.03;3.53;;;;;;;;;;5013953;28;20116;-82
2022/09/12 04:01:20;;;;;;;4.80;3.60;;;;;;;;;;5020898;28;20033;-82
2022/09/12 04:03:48;;;;;;;6.25;3.70;;;;;;;;;;5032037;28;20030;-82
2022/09/12 04:06:16;;;;;;;5.90;3.63;;;;;;;;;;5001931;28;20095;-82
2022/09/12 04:08:43;;;;;;;5.10;3.55;;;;;;;;;;5012281;28;20030;-80
2022/09/12 04:11:13;;;;;;;5.07;3.50;;;;;;;;;;4974740;28;20437;-80
2022/09/12 04:13:40;;;;;;;6.95;3.55;;;;;;;;;;5027641;28;20034;-81
2022/09/12 04:16:06;;;;;;;5.88;3.95;;;;;;;;;;5010727;28;20030;-81
2022/09/12 04:18:32;;;;;;;5.70;3.67;;;;;;;;;;5001938;28;20053;-81
2022/09/12 04:20:58;;;;;;;7.15;4.20;;;;;;;;;;4995639;28;20030;-81
2022/09/12 04:23:23;;;;;;;6.22;3.97;;;;;;;;;;5013027;28;20141;-81
2022/09/12 04:25:54;;;;;;;6.72;4.20;;;;;;;;;;5006277;28;20030;-82
2022/09/12 04:28:19;;;;;;;7.70;3.67;;;;;;;;;;4984387;28;20420;-81
2022/09/12 04:30:46;;;;;;;5.97;4.22;;;;;;;;;;5001634;28;20053;-81
2022/09/12 04:33:11;;;;;;;5.47;4.15;;;;;;;;;;5013198;28;20502;-80
2022/09/12 04:35:37;;;;;;;6.05;3.80;;;;;;;;;;5008364;28;20172;-79
2022/09/12 04:38:02;;;;;;;5.70;3.90;;;;;;;;;;5012555;28;20037;-79
2022/09/12 04:40:29;;;;;;;6.55;3.97;;;;;;;;;;5010823;28;20041;-79
2022/09/12 04:42:54;;;;;;;5.55;3.70;;;;;;;;;;5011389;28;20477;-80
2022/09/12 04:45:20;;;;;;;6.57;4.07;;;;;;;;;;5018365;28;20083;-80
2022/09/12 04:47:47;;;;;;;5.85;4.30;;;;;;;;;;5006834;28;20030;-80
2022/09/12 04:50:15;;;;;;;5.85;4.00;;;;;;;;;;5011921;28;20363;-80
2022/09/12 04:52:41;;;;;;;5.60;4.25;;;;;;;;;;5011079;28;20038;-81
2022/09/12 04:55:07;;;;;;;6.90;4.32;;;;;;;;;;5000813;28;20125;-82
2022/09/12 04:57:33;;;;;;;5.72;4.03;;;;;;;;;;5027945;28;20030;-81
2022/09/12 04:59:58;;;;;;;6.78;4.40;;;;;;;;;;5027130;28;20034;-78
2022/09/12 05:02:24;;;;;;;6.30;4.80;;;;;;;;;;4993839;28;20049;-77
2022/09/12 05:04:58;;;;;;;6.80;4.80;;;;;;;;;;5010300;28;20133;-79
2022/09/12 05:07:23;;;;;;;5.78;4.32;;;;;;;;;;4990540;28;20037;-79
2022/09/12 05:09:48;;;;;;;7.38;4.65;;;;;;;;;;5006244;28;20029;-79
2022/09/12 05:12:14;;;;;;;7.38;4.47;;;;;;;;;;5009861;28;20049;-79
2022/09/12 05:14:39;;;;;;;6.40;4.60;;;;;;;;;;4990985;28;20118;-78
2022/09/12 05:17:05;;;;;;;7.25;4.85;;;;;;;;;;5005269;28;20034;-79
2022/09/12 05:19:31;;;;;;;6.70;4.80;;;;;;;;;;5009576;28;20034;-79
2022/09/12 05:21:58;;;;;;;7.03;4.65;;;;;;;;;;4993319;28;20033;-78
2022/09/12 05:24:23;;;;;;;7.17;4.87;;;;;;;;;;5010733;28;20041;-79
2022/09/12 05:26:49;;;;;;;8.15;5.30;;;;;;;;;;4992928;28;20038;-78
2022/09/12 05:29:15;;;;;;;6.05;4.82;;;;;;;;;;5006549;28;20026;-78
2022/09/12 05:31:40;;;;;;;6.43;4.88;;;;;;;;;;4999695;28;20042;-79
2022/09/12 05:34:07;;;;;;;6.97;5.28;;;;;;;;;;5011262;28;20033;-78
2022/09/12 05:36:33;;;;;;;6.28;4.78;;;;;;;;;;5008615;28;20385;-79
2022/09/12 05:38:59;;;;;;;9.05;5.20;;;;;;;;;;5009089;28;20034;-81
2022/09/12 05:41:28;;;;;;;8.95;5.95;;;;;;;;;;5007274;28;20080;-79
2022/09/12 05:43:57;;;;;;;7.95;5.50;;;;;;;;;;5001516;28;20037;-80
2022/09/12 05:46:25;;;;;;;7.30;5.18;;;;;;;;;;5009104;28;20381;-81
2022/09/12 05:48:51;;;;;;;8.40;5.53;;;;;;;;;;4996713;28;20561;-81
2022/09/12 05:51:22;;;;;;;7.10;5.25;;;;;;;;;;5000195;28;20026;-82
2022/09/12 05:53:51;;;;;;;7.63;5.75;;;;;;;;;;5009123;28;20040;-81
2022/09/12 05:56:19;;;;;;;7.80;5.82;;;;;;;;;;5009338;28;20033;-82
2022/09/12 05:58:49;;;;;;;;;;;;;;;;;;5025652;28;20117;-81
2022/09/12 06:01:17;;;;;;;7.20;5.38;;;;;;;;;;5008490;28;21523;-80
2022/09/12 06:03:44;;;;;;;7.18;5.38;;;;;;;;;;5009921;28;20038;-81
2022/09/12 06:06:13;;;;;;;8.15;5.60;;;;;;;;;;5025253;28;20099;-82
2022/09/12 06:08:40;;;;;;;8.15;5.78;;;;;;;;;;5027359;28;20132;-81
2022/09/12 06:11:06;;;;;;;8.48;6.05;;;;;;;;;;4990382;28;20041;-82
2022/09/12 06:13:35;;;;;;;7.38;5.90;;;;;;;;;;4994651;28;20475;-81
2022/09/12 06:16:05;;;;;;;;;;;;;;;;;;4985778;28;20125;-83
2022/09/12 06:18:31;;;;;;;8.20;5.50;;;;;;;;;;4990731;28;20039;-82
2022/09/12 06:20:56;;;;;;;7.47;5.20;;;;;;;;;;5006833;28;20029;-82
2022/09/12 06:23:25;;;;;;;6.50;5.20;;;;;;;;;;4991871;28;20037;-82
2022/09/12 06:25:51;;;;;;;8.40;4.85;;;;;;;;;;4996223;28;20034;-82
2022/09/12 06:28:16;;;;;;;7.30;4.90;;;;;;;;;;5008434;28;20388;-82
2022/09/12 06:30:42;;;;;;;5.72;4.32;;;;;;;;;;4990002;28;20037;-84
2022/09/12 06:33:07;;;;;;;6.10;4.47;;;;;;;;;;4991390;28;20037;-83
2022/09/12 06:35:39;;;;;;;6.75;4.40;;;;;;;;;;4990804;28;20033;-82
2022/09/12 06:38:04;;;;;;;6.40;4.57;;;;;;;;;;5006457;28;20143;-83
2022/09/12 06:40:30;;;;;;;7.88;4.15;;;;;;;;;;4990210;28;20502;-83
2022/09/12 06:42:55;;;;;;;6.70;4.45;;;;;;;;;;5006338;28;20378;-83
2022/09/12 06:45:24;;;;;;;6.50;4.60;;;;;;;;;;4992894;28;20033;-82
2022/09/12 06:47:50;;;;;;;7.40;3.83;;;;;;;;;;4985905;28;20041;-83
2022/09/12 06:50:15;;;;;;;6.80;3.72;;;;;;;;;;4984881;28;20041;-84
2022/09/12 06:52:41;;;;;;;7.97;3.80;;;;;;;;;;4989798;28;20052;-84
2022/09/12 06:55:06;;;;;;;4.57;3.20;;;;;;;;;;4990914;28;20048;-83
2022/09/12 06:57:35;;;;;;;4.32;2.85;;;;;;;;;;5006494;28;20067;-83
2022/09/12 07:00:10;;;;;;;4.85;2.67;;;;;;;;;;4991098;28;20057;-83
2022/09/12 07:02:35;;;;;;;4.43;2.83;;;;;;;;;;4989969;28;20096;-81
2022/09/12 07:05:01;;;;;;;5.35;2.85;;;;;;;;;;4989798;28;20483;-81
2022/09/12 07:07:26;;;;;;;3.10;1.90;;;;;;;;;;5006020;28;20048;-82
2022/09/12 07:09:51;;;;;;;3.42;1.92;;;;;;;;;;5013238;28;20048;-83
2022/09/12 07:12:17;;;;;;;3.80;2.08;;;;;;;;;;5000253;28;20811;-82
2022/09/12 07:14:42;;;;;;;2.95;1.77;;;;;;;;;;5006167;28;20037;-82
2022/09/12 07:17:07;;;;;;;4.95;1.77;;;;;;;;;;4989383;28;20520;-81
2022/09/12 07:19:33;;;;;;;3.17;1.75;;;;;;;;;;4989167;28;20042;-81
2022/09/12 07:21:59;;;;;;;3.97;2.00;;;;;;;;;;5004463;28;20042;-81
2022/09/12 07:24:25;;;;;;;4.13;1.80;;;;;;;;;;4990951;28;20246;-82
2022/09/12 07:26:50;;;;;;;4.00;1.92;;;;;;;;;;4988540;28;20033;-81
2022/09/12 07:29:16;;;;;;;3.17;1.33;;;;;;;;;;4990414;28;20108;-81
2022/09/12 07:31:42;;;;;;;2.83;1.40;;;;;;;;;;5013710;28;20118;-81
2022/09/12 07:34:07;;;;;;;2.85;1.50;;;;;;;;;;5026753;28;20120;-82
2022/09/12 07:36:36;;;;;;;2.47;1.40;;;;;;;;;;4993604;28;20124;-82
2022/09/12 07:39:01;;;;;;;3.55;1.30;;;;;;;;;;4987699;28;20091;-82
2022/09/12 07:41:32;;;;;;;2.90;1.30;;;;;;;;;;4987613;28;20037;-82
2022/09/12 07:43:59;;;;;;;2.67;1.30;;;;;;;;;;4996739;28;20067;-81
2022/09/12 07:46:25;;;;;;;3.88;1.30;;;;;;;;;;4995791;28;20041;-84
2022/09/12 07:48:51;;;;;;;2.03;0.90;;;;;;;;;;4994914;28;20047;-83
2022/09/12 07:51:17;;;;;;;2.20;0.90;;;;;;;;;;5007317;28;20033;-84
2022/09/12 07:53:43;;;;;;;2.45;1.33;;;;;;;;;;5009999;28;20029;-83
2022/09/12 07:56:10;;;;;;;2.00;0.90;;;;;;;;;;4992997;28;20522;-81
2022/09/12 07:58:36;;;;;;;3.35;1.10;;;;;;;;;;4994113;28;20044;-83
2022/09/12 08:01:14;;;;;;;2.45;1.00;;;;;;;;;;5011753;28;20075;-81
2022/09/12 08:03:41;;;;;;;2.38;0.93;;;;;;;;;;4989719;28;20711;-81
2022/09/12 08:06:08;;;;;;;1.80;0.75;;;;;;;;;;5015512;28;20072;-82
2022/09/12 08:08:34;;;;;;;2.30;0.70;;;;;;;;;;5004061;28;20806;-82
2022/09/12 08:11:02;;;;;;;2.83;0.85;;;;;;;;;;5010330;28;20033;-84
2022/09/12 08:13:28;;;;;;;3.22;1.23;;;;;;;;;;4993510;28;20041;-82
2022/09/12 08:15:58;;;;;;;3.20;1.00;;;;;;;;;;4995514;28;20502;-83
2022/09/12 08:18:25;;;;;;;4.55;0.90;;;;;;;;;;4994255;28;20746;-82
2022/09/12 08:21:04;;;;;;;2.53;0.73;;;;;;;;;;5008233;28;20029;-82
2022/09/12 08:23:30;;;;;;;3.72;0.70;;;;;;;;;;5012905;28;20037;-81
2022/09/12 08:26:02;;;;;;;1.10;0.40;;;;;;;;;;5009377;28;20531;-84
2022/09/12 08:28:29;;;;;;;1.58;0.50;;;;;;;;;;5008972;28;20596;-81
2022/09/12 08:31:02;;;;;;;6.27;0.80;;;;;;;;;;4995575;28;20034;-82
2022/09/12 08:33:32;;;;;;;2.10;0.70;;;;;;;;;;5010288;28;20052;-83
2022/09/12 08:36:21;;;;;;;1.50;0.47;;;;;;;;;;4993465;28;20029;-79
2022/09/12 08:38:48;;;;;;;0.68;0.40;;;;;;;;;;4989331;28;20444;-79
2022/09/12 08:41:30;;;;;;;;;;;;;;;;;;5003951;28;20089;-79
2022/09/12 08:43:58;;;;;;;1.63;0.60;;;;;;;;;;5009879;28;20300;-79
2022/09/12 08:46:33;;;;;;;1.27;0.50;;;;;;;;;;5032108;28;20033;-79
2022/09/12 08:49:00;;;;;;;1.70;0.50;;;;;;;;;;4989360;28;20163;-78
2022/09/12 08:51:26;;;;;;;1.35;0.40;;;;;;;;;;5014801;28;20037;-78
2022/09/12 08:53:55;;;;;;;2.40;0.50;;;;;;;;;;4987908;28;20086;-79
2022/09/12 08:56:21;;;;;;;1.73;0.40;;;;;;;;;;5009462;28;20498;-78
2022/09/12 08:58:46;;;;;;;1.45;0.40;;;;;;;;;;4999592;28;20106;-79
2022/09/12 09:01:34;;;;;;;2.25;0.57;;;;;;;;;;4990269;28;20519;-80
2022/09/12 09:04:21;;;;;;;1.42;0.40;;;;;;;;;;4988520;28;20113;-79
2022/09/12 09:07:05;;;;;;;1.80;0.60;;;;;;;;;;5031254;28;20049;-79
2022/09/12 09:09:49;;;;;;;2.05;0.50;;;;;;;;;;5029890;28;20491;-79
2022/09/12 09:12:29;;;;;;;2.63;0.95;;;;;;;;;;5013788;28;20095;-79
2022/09/12 09:15:10;;;;;;;2.55;0.70;;;;;;;;;;4990879;28;20124;-80
2022/09/12 09:17:48;;;;;;;2.00;0.80;;;;;;;;;;5012048;28;20038;-81
2022/09/12 09:20:35;;;;;;;2.42;0.77;;;;;;;;;;4996136;28;20128;-81
2022/09/12 09:23:03;;;;;;;2.80;0.65;;;;;;;;;;4997388;28;20041;-79
2022/09/12 09:25:57;;;;;;;1.80;0.80;;;;;;;;;;4986545;28;20048;-80
2022/09/12 09:28:29;;;;;;;2.55;0.80;;;;;;;;;;5027366;28;20503;-79
2022/09/12 09:30:58;;;;;;;2.15;0.68;;;;;;;;;;5004630;28;20026;-80
2022/09/12 09:33:27;;;;;;;1.27;0.70;;;;;;;;;;4985392;28;20404;-79
2022/09/12 09:36:28;;;;;;;3.95;0.70;;;;;;;;;;5011494;28;20380;-82
2022/09/12 09:39:20;;;;;;;2.33;0.60;;;;;;;;;;5029898;28;20037;-79
2022/09/12 09:42:43;;;;;;;3.33;1.00;;;;;;;;;;5007760;28;20045;-78
2022/09/12 09:45:17;;;;;;;3.00;0.90;;;;;;;;;;4949155;28;20610;-81
2022/09/12 09:47:45;;;;;;;2.88;1.20;;;;;;;;;;4934299;28;20035;-82
2022/09/12 09:50:15;;;;;;;2.10;0.80;;;;;;;;;;4982552;28;20089;-81
2022/09/12 09:52:41;;;;;;;2.50;0.80;;;;;;;;;;5010974;28;20571;-80
2022/09/12 09:55:13;;;;;;;3.08;0.70;;;;;;;;;;5018616;28;20033;-82
2022/09/12 09:57:41;;;;;;;2.22;0.60;;;;;;;;;;4996963;28;20037;-79
2022/09/12 10:00:23;;;;;;;2.58;0.65;;;;;;;;;;4997332;28;20038;-79
2022/09/12 10:03:03;;;;;;;2.00;0.70;;;;;;;;;;5029789;28;20033;-80
2022/09/12 10:05:30;;;;;;;2.45;0.55;;;;;;;;;;5005219;28;20049;-79
2022/09/12 10:07:55;;;;;;;2.00;0.77;;;;;;;;;;4991746;28;20493;-80
2022/09/12 10:10:22;;;;;;;3.75;0.80;;;;;;;;;;4991461;28;20275;-80
2022/09/12 10:12:49;;;;;;;2.25;0.75;;;;;;;;;;5010514;28;20042;-80
2022/09/12 10:15:18;;;;;;;2.50;0.60;;;;;;;;;;5009007;28;20037;-80
2022/09/12 10:17:47;;;;;;;2.28;0.73;;;;;;;;;;5004975;28;20030;-82
2022/09/12 10:20:42;;;;;;;1.85;0.60;;;;;;;;;;5005612;28;20377;-80
2022/09/12 10:23:30;;;;;;;1.85;0.70;;;;;;;;;;5008835;28;20042;-80
2022/09/12 10:26:00;;;;;;;1.98;0.70;;;;;;;;;;5010505;28;20030;-80
2022/09/12 10:28:37;;;;;;;1.60;0.73;;;;;;;;;;5009002;28;20049;-80
2022/09/12 10:31:03;;;;;;;;;;;;;;;;;;5007021;28;20061;-80
2022/09/12 10:33:28;;;;;;;3.40;0.70;;;;;;;;;;5010595;28;19968;-79
2022/09/12 10:35:54;;;;;;;1.70;0.73;;;;;;;;;;5010713;28;20592;-80
2022/09/12 10:38:26;;;;;;;3.20;0.90;;;;;;;;;;5010598;28;20539;-80
2022/09/12 10:41:02;;;;;;;3.30;0.70;;;;;;;;;;4998604;28;20038;-80
2022/09/12 10:43:36;;;;;;;1.48;0.70;;;;;;;;;;4980758;28;20057;-80
2022/09/12 10:46:13;;;;;;;4.15;0.90;;;;;;;;;;5008968;28;20366;-80
2022/09/12 10:48:38;;;;;;;;;;;;;;;;;;4998402;28;20077;-81
2022/09/12 10:51:04;;;;;;;2.53;0.50;;;;;;;;;;5008213;28;19972;-81
2022/09/12 10:53:40;;;;;;;1.48;0.50;;;;;;;;;;5001792;28;20046;-78
2022/09/12 10:56:12;;;;;;;1.27;0.52;;;;;;;;;;4998058;28;20041;-77
2022/09/12 10:59:07;;;;;;;2.00;0.40;;;;;;;;;;4985772;28;20033;-79
2022/09/12 11:01:42;;;;;;;1.17;0.50;;;;;;;;;;5011016;28;20034;-79
2022/09/12 11:04:26;;;;;;;1.45;0.47;;;;;;;;;;5023559;28;20087;-78
2022/09/12 11:07:03;;;;;;;1.10;0.40;;;;;;;;;;5011552;28;20505;-79
2022/09/12 11:09:56;;;;;;;1.48;0.30;;;;;;;;;;5028975;28;20098;-78
2022/09/12 11:12:28;;;;;;;1.42;0.50;;;;;;;;;;5004313;28;20458;-78
2022/09/12 11:14:59;;;;;;;1.13;0.47;;;;;;;;;;5028681;28;20116;-78
2022/09/12 11:17:33;;;;;;;4.10;0.50;;;;;;;;;;5013715;28;20033;-80
2022/09/12 11:20:19;;;;;;;1.67;0.55;;;;;;;;;;5028623;28;20033;-77
2022/09/12 11:22:59;;;;;;;6.07;2.90;;;;;;;;;;5010632;28;20029;-79
2022/09/12 11:25:33;;;;;;;8.40;4.57;;;;;;;;;;5002310;28;20046;-79
2022/09/12 11:28:14;;;;;;;5.22;2.08;;;;;;;;;;5012000;28;20116;-81
2022/09/12 11:30:54;;;;;;;3.40;1.70;;;;;;;;;;4994288;28;20556;-78
2022/09/12 11:33:38;;;;;;;0.98;0.50;;;;;;;;;;5027414;28;20026;-79
2022/09/12 11:36:07;;;;;;;2.30;0.93;;;;;;;;;;5024668;28;20131;-80
2022/09/12 11:39:03;;;;;;;1.35;0.40;;;;;;;;;;4992588;28;20038;-79
2022/09/12 11:41:43;;;;;;;1.70;0.50;;;;;;;;;;5028502;28;20124;-80
2022/09/12 11:44:19;;;;;;;1.20;0.43;;;;;;;;;;5011499;28;20467;-80
2022/09/12 11:46:45;;;;;;;1.80;0.30;;;;;;;;;;5001287;28;20034;-80
2022/09/12 11:49:14;;;;;;;3.47;0.63;;;;;;;;;;4989006;28;20515;-80
2022/09/12 11:52:01;;;;;;;1.10;0.50;;;;;;;;;;5012037;28;20034;-79
2022/09/12 11:54:52;;;;;;;;;;;;;;;;;;5026993;28;20041;-78
2022/09/12 11:57:24;;;;;;;1.60;0.43;;;;;;;;;;5024141;28;19913;-78
2022/09/12 12:00:13;;;;;;;1.85;0.55;;;;;;;;;;5027505;28;20033;-79
2022/09/12 12:03:12;;;;;;;1.60;0.40;;;;;;;;;;5015708;28;20505;-77
2022/09/12 12:05:56;;;;;;;0.82;0.40;;;;;;;;;;5019032;28;20384;-79
2022/09/12 12:08:23;;;;;;;1.85;0.43;;;;;;;;;;4990556;28;20425;-79
2022/09/12 12:11:00;;;;;;;1.75;0.55;;;;;;;;;;5027602;28;20037;-78
2022/09/12 12:13:44;;;;;;;1.63;0.60;;;;;;;;;;4987273;28;20085;-79
2022/09/12 12:16:13;;;;;;;1.90;0.50;;;;;;;;;;5025220;28;20053;-78
2022/09/12 12:18:39;;;;;;;1.35;0.60;;;;;;;;;;5014829;28;20037;-79
2022/09/12 12:21:39;;;;;;;1.70;0.60;;;;;;;;;;5014577;28;20381;-78
2022/09/12 12:24:08;;;;;;;1.58;0.50;;;;;;;;;;5032539;28;20037;-79
2022/09/12 12:26:39;;;;;;;1.10;0.50;;;;;;;;;;5032165;28;20036;-80
2022/09/12 12:29:17;;;;;;;1.70;0.57;;;;;;;;;;5000310;28;20141;-81
2022/09/12 12:32:02;;;;;;;1.25;0.40;;;;;;;;;;5023082;28;20103;-78
2022/09/12 12:34:37;;;;;;;1.85;0.50;;;;;;;;;;5007886;28;20575;-78
2022/09/12 12:37:17;;;;;;;1.63;0.50;;;;;;;;;;5003141;28;20500;-78
2022/09/12 12:39:43;;;;;;;1.17;0.50;;;;;;;;;;5014451;28;20038;-78
2022/09/12 12:42:09;;;;;;;1.20;0.50;;;;;;;;;;5031866;28;20040;-79
2022/09/12 12:44:52;;;;;;;1.42;0.40;;;;;;;;;;5010245;28;20385;-79
2022/09/12 12:47:23;;;;;;;2.30;0.60;;;;;;;;;;5007565;28;20045;-78
2022/09/12 12:50:00;;;;;;;1.50;0.60;;;;;;;;;;5014451;28;20485;-78
2022/09/12 12:52:27;;;;;;;;;;;;;;;;;;5013496;28;20485;-82
2022/09/12 12:54:59;;;;;;;1.83;0.63;;;;;;;;;;5013374;28;19935;-83
2022/09/12 12:57:48;;;;;;;1.20;0.50;;;;;;;;;;5013996;28;20064;-82
2022/09/12 13:00:34;;;;;;;2.67;0.70;;;;;;;;;;4961896;28;20038;-82
2022/09/12 13:03:05;;;;;;;1.88;0.90;;;;;;;;;;4952312;28;20035;-82
2022/09/12 13:05:51;;;;;;;1.30;0.60;;;;;;;;;;4966878;28;20050;-83
2022/09/12 13:08:16;;;;;;;3.05;0.73;;;;;;;;;;4950138;28;20043;-83
2022/09/12 13:10:57;;;;;;;2.95;1.10;;;;;;;;;;4949890;28;20041;-81
2022/09/12 13:13:29;;;;;;;1.63;0.63;;;;;;;;;;4962453;28;20422;-83
2022/09/12 13:15:54;;;;;;;1.40;0.60;;;;;;;;;;4922223;29;20521;-82
2022/09/12 13:18:39;;;;;;;1.80;0.70;;;;;;;;;;4965725;28;20051;-82
2022/09/12 13:21:16;;;;;;;1.35;0.50;;;;;;;;;;4963809;28;20035;-84
2022/09/12 13:23:43;;;;;;;1.50;0.45;;;;;;;;;;4964957;28;20047;-83
2022/09/12 13:26:13;;;;;;;1.50;0.60;;;;;;;;;;4950252;28;20034;-82
2022/09/12 13:28:39;;;;;;;1.38;0.60;;;;;;;;;;4934754;28;20035;-83
2022/09/12 13:31:21;;;;;;;1.67;0.55;;;;;;;;;;4932394;28;20045;-82
2022/09/12 13:33:53;;;;;;;2.05;0.50;;;;;;;;;;4944734;28;20053;-83
2022/09/12 13:37:04;;;;;;;1.52;0.63;;;;;;;;;;4968049;28;20139;-82
2022/09/12 13:39:54;;;;;;;1.63;0.63;;;;;;;;;;5006592;28;20076;-83
2022/09/12 13:42:41;;;;;;;2.38;0.88;;;;;;;;;;5021098;28;20061;-83
2022/09/12 13:45:25;;;;;;;2.33;0.60;;;;;;;;;;5010862;28;20042;-81
2022/09/12 13:47:54;;;;;;;1.52;0.55;;;;;;;;;;4993462;28;20374;-83
2022/09/12 13:50:23;;;;;;;1.55;0.70;;;;;;;;;;4993197;28;20455;-82
2022/09/12 13:52:54;;;;;;;1.63;0.60;;;;;;;;;;4992763;28;20037;-81
2022/09/12 13:55:29;;;;;;;2.67;0.60;;;;;;;;;;5007814;28;20127;-83
2022/09/12 13:57:56;;;;;;;1.40;0.60;;;;;;;;;;5007039;28;20107;-85
2022/09/12 14:00:23;;;;;;;2.05;0.43;;;;;;;;;;4992638;28;20033;-85
2022/09/12 14:02:49;;;;;;;1.45;0.65;;;;;;;;;;4993138;28;20048;-84
2022/09/12 14:05:24;;;;;;;1.75;0.55;;;;;;;;;;5007617;28;20045;-86
2022/09/12 14:07:57;;;;;;;1.65;0.60;;;;;;;;;;5002154;28;20038;-85
2022/09/12 14:10:27;;;;;;;3.00;0.75;;;;;;;;;;4984647;28;20037;-82
2022/09/12 14:12:54;;;;;;;2.78;0.95;;;;;;;;;;4990417;28;20060;-83
2022/09/12 14:15:28;;;;;;;2.45;0.70;;;;;;;;;;5003972;28;20090;-84
2022/09/12 14:17:58;;;;;;;2.42;0.80;;;;;;;;;;5008389;28;20560;-82
2022/09/12 14:20:25;;;;;;;1.50;0.80;;;;;;;;;;4985178;28;20068;-82
2022/09/12 14:22:51;;;;;;;1.70;0.70;;;;;;;;;;4993083;28;20099;-81
2022/09/12 14:25:19;;;;;;;2.13;0.77;;;;;;;;;;4993031;28;20045;-83
2022/09/12 14:27:48;;;;;;;1.60;0.70;;;;;;;;;;4994835;28;20133;-82
2022/09/12 14:30:25;;;;;;;2.00;0.60;;;;;;;;;;4995910;28;20061;-83
2022/09/12 14:33:08;;;;;;;1.83;0.70;;;;;;;;;;4978760;28;20470;-82
2022/09/12 14:35:37;;;;;;;3.13;0.70;;;;;;;;;;5005937;28;20034;-81
2022/09/12 14:38:12;;;;;;;2.33;0.70;;;;;;;;;;5002203;28;20091;-82
2022/09/12 14:40:43;;;;;;;1.65;0.68;;;;;;;;;;4986374;28;20058;-82
2022/09/12 14:43:40;;;;;;;1.70;0.60;;;;;;;;;;4994685;28;20041;-83
2022/09/12 14:46:12;;;;;;;2.10;0.75;;;;;;;;;;4980738;28;20489;-83
2022/09/12 14:48:42;;;;;;;1.73;0.68;;;;;;;;;;4986988;28;20040;-83
2022/09/12 14:51:18;;;;;;;1.80;0.63;;;;;;;;;;4995063;28;20030;-82
2022/09/12 14:53:47;;;;;;;2.22;0.70;;;;;;;;;;5009146;28;20362;-83
2022/09/12 14:56:16;;;;;;;3.33;0.93;;;;;;;;;;4989661;28;20041;-82
2022/09/12 14:58:42;;;;;;;2.20;0.90;;;;;;;;;;4990723;28;20041;-83
2022/09/12 15:01:07;;;;;;;2.28;0.80;;;;;;;;;;4992830;28;20120;-83
2022/09/12 15:03:44;;;;;;;1.25;0.60;;;;;;;;;;5010583;28;20038;-83
2022/09/12 15:06:24;;;;;;;1.67;0.77;;;;;;;;;;5026085;28;20063;-84
2022/09/12 15:08:51;;;;;;;2.50;0.70;;;;;;;;;;4992869;28;20025;-82
2022/09/12 15:11:17;;;;;;;2.15;0.90;;;;;;;;;;4993103;28;20036;-83
2022/09/12 15:13:42;;;;;;;1.65;0.60;;;;;;;;;;4994342;28;20037;-83